createdAt,value
2023-02-08T00:01:11.612Z,16.83
2023-02-08T00:03:40.929Z,17.60
2023-02-08T00:06:10.043Z,17.90
2023-02-08T00:08:39.153Z,17.40
2023-02-08T00:11:07.993Z,16.70
2023-02-08T00:13:35.859Z,18.07
2023-02-08T00:16:03.848Z,17.30
2023-02-08T00:18:31.933Z,17.13
2023-02-08T00:21:01.102Z,17.53
2023-02-08T00:23:29.079Z,17.97
2023-02-08T00:25:56.916Z,17.10
2023-02-08T00:28:24.801Z,16.83
2023-02-08T00:30:53.303Z,17.07
2023-02-08T00:33:21.400Z,18.37
2023-02-08T00:35:49.496Z,17.60
2023-02-08T00:38:18.739Z,17.13
2023-02-08T00:40:47.040Z,17.50
2023-02-08T00:43:14.908Z,17.57
2023-02-08T00:45:43.362Z,17.23
2023-02-08T00:48:11.242Z,16.83
2023-02-08T00:50:39.493Z,17.57
2023-02-08T00:53:07.523Z,16.93
2023-02-08T00:55:36.694Z,17.50
2023-02-08T00:58:05.443Z,17.10
2023-02-08T01:00:33.279Z,17.60
2023-02-08T01:03:01.213Z,18.00
2023-02-08T01:05:29.044Z,18.53
2023-02-08T01:07:57.977Z,18.37
2023-02-08T01:10:25.890Z,18.80
2023-02-08T01:12:55.801Z,17.97
2023-02-08T01:15:23.837Z,17.50
2023-02-08T01:17:55.050Z,16.77
2023-02-08T01:20:23.794Z,18.07
2023-02-08T01:22:51.720Z,17.23
2023-02-08T01:25:19.631Z,17.53
2023-02-08T01:27:47.552Z,16.57
2023-02-08T01:30:17.474Z,18.07
2023-02-08T01:32:45.353Z,17.20
2023-02-08T01:35:13.161Z,17.30
2023-02-08T01:37:41.025Z,16.60
2023-02-08T01:40:11.742Z,18.33
2023-02-08T01:42:39.738Z,16.13
2023-02-08T01:45:25.562Z,18.03
2023-02-08T01:48:02.960Z,18.57
2023-02-08T01:50:35.425Z,17.73
2023-02-08T01:53:03.861Z,18.87
2023-02-08T01:55:36.250Z,17.20
2023-02-08T01:58:08.179Z,17.50
2023-02-08T02:00:37.465Z,17.43
2023-02-08T02:03:06.499Z,17.60
2023-02-08T02:05:39.740Z,17.63
2023-02-08T02:08:08.506Z,17.57
2023-02-08T02:10:38.496Z,18.13
2023-02-08T02:13:08.947Z,19.23
2023-02-08T02:15:38.509Z,17.73
2023-02-08T02:18:07.772Z,17.80
2023-02-08T02:20:56.504Z,19.67
2023-02-08T02:24:00.783Z,18.20
2023-02-08T02:26:50.618Z,18.80
2023-02-08T02:29:50.941Z,18.57
2023-02-08T02:32:40.937Z,18.07
2023-02-08T02:35:16.543Z,18.93
2023-02-08T02:37:52.016Z,19.00
2023-02-08T02:40:26.778Z,19.30
2023-02-08T02:43:19.672Z,20.27
2023-02-08T02:45:55.575Z,19.77
2023-02-08T02:48:32.024Z,19.37
2023-02-08T02:51:08.136Z,19.47
2023-02-08T02:53:41.921Z,19.23
2023-02-08T02:56:14.450Z,19.07
2023-02-08T02:58:45.079Z,18.93
2023-02-08T03:01:13.435Z,18.20
2023-02-08T03:03:42.629Z,19.17
2023-02-08T03:06:15.651Z,19.10
2023-02-08T03:09:09.754Z,19.57
2023-02-08T03:11:38.548Z,18.43
2023-02-08T03:14:34.683Z,18.40
2023-02-08T03:17:28.675Z,18.80
2023-02-08T03:20:06.924Z,18.90
2023-02-08T03:22:44.139Z,19.30
2023-02-08T03:25:18.302Z,18.33
2023-02-08T03:27:53.780Z,18.33
2023-02-08T03:30:28.822Z,18.30
2023-02-08T03:33:02.851Z,18.10
2023-02-08T03:35:35.568Z,18.27
2023-02-08T03:38:08.081Z,17.23
2023-02-08T03:40:39.026Z,16.80
2023-02-08T03:43:13.838Z,18.10
2023-02-08T03:45:46.453Z,18.60
2023-02-08T03:48:18.330Z,17.77
2023-02-08T03:50:51.275Z,16.73
2023-02-08T03:53:23.006Z,17.90
2023-02-08T03:55:55.842Z,18.07
2023-02-08T03:58:27.090Z,20.87
2023-02-08T04:00:59.646Z,18.00
2023-02-08T04:03:29.753Z,17.97
2023-02-08T04:05:59.207Z,18.33
2023-02-08T04:08:28.431Z,18.23
2023-02-08T04:10:56.299Z,17.87
2023-02-08T04:13:24.156Z,18.27
2023-02-08T04:15:51.988Z,18.43
2023-02-08T04:18:19.856Z,17.43
2023-02-08T04:20:47.694Z,17.40
2023-02-08T04:23:16.891Z,17.00
2023-02-08T04:25:44.960Z,17.27
2023-02-08T04:28:12.841Z,17.10
2023-02-08T04:30:40.989Z,16.60
2023-02-08T04:33:09.053Z,17.10
2023-02-08T04:35:36.853Z,16.80
2023-02-08T04:38:04.768Z,16.97
2023-02-08T04:40:33.956Z,16.37
2023-02-08T04:43:02.330Z,16.20
2023-02-08T04:45:32.087Z,15.93
2023-02-08T04:48:01.435Z,16.90
2023-02-08T04:50:29.333Z,17.93
2023-02-08T04:52:57.196Z,17.30
2023-02-08T04:55:24.999Z,17.13
2023-02-08T04:57:54.189Z,17.77
2023-02-08T05:00:22.022Z,18.43
2023-02-08T05:02:53.957Z,17.37
2023-02-08T05:05:22.685Z,17.13
2023-02-08T05:07:50.530Z,17.90
2023-02-08T05:10:18.709Z,17.87
2023-02-08T05:12:46.928Z,17.37
2023-02-08T05:15:16.137Z,16.53
2023-02-08T05:17:44.068Z,17.53
2023-02-08T05:20:12.773Z,17.77
2023-02-08T05:22:41.345Z,17.43
2023-02-08T05:25:09.876Z,16.70
2023-02-08T05:27:38.434Z,17.80
2023-02-08T05:30:07.069Z,18.30
2023-02-08T05:32:36.327Z,17.73
2023-02-08T05:35:04.434Z,17.87
2023-02-08T05:37:32.301Z,17.27
2023-02-08T05:40:00.264Z,17.87
2023-02-08T05:42:28.188Z,17.87
2023-02-08T05:44:55.983Z,17.77
2023-02-08T05:47:24.152Z,18.80
2023-02-08T05:49:53.297Z,17.50
2023-02-08T05:52:21.246Z,17.03
2023-02-08T05:54:49.094Z,18.10
2023-02-08T05:57:17.064Z,17.50
2023-02-08T05:59:44.995Z,17.37
2023-02-08T06:02:12.835Z,17.23
2023-02-08T06:04:40.745Z,18.20
2023-02-08T06:07:10.049Z,17.53
2023-02-08T06:09:38.114Z,17.33
2023-02-08T06:12:07.114Z,16.93
2023-02-08T06:14:34.967Z,17.93
2023-02-08T06:17:02.754Z,18.77
2023-02-08T06:19:30.626Z,17.77
2023-02-08T06:21:58.452Z,17.93
2023-02-08T06:24:27.725Z,18.97
2023-02-08T06:26:55.519Z,18.50
2023-02-08T06:29:23.596Z,17.90
2023-02-08T06:31:51.520Z,17.97
2023-02-08T06:34:19.541Z,18.63
2023-02-08T06:36:47.398Z,19.57
2023-02-08T06:39:15.248Z,19.00
2023-02-08T06:41:44.473Z,18.07
2023-02-08T06:44:12.366Z,17.80
2023-02-08T06:46:40.169Z,18.60
2023-02-08T06:49:08.201Z,18.17
2023-02-08T06:51:36.038Z,18.37
2023-02-08T06:54:04.074Z,18.17
2023-02-08T06:56:31.949Z,19.97
2023-02-08T06:59:01.155Z,19.33
2023-02-08T07:01:29.016Z,20.73
2023-02-08T07:03:56.879Z,19.67
2023-02-08T07:06:24.829Z,20.20
2023-02-08T07:08:52.734Z,19.90
2023-02-08T07:11:21.933Z,21.13
2023-02-08T07:13:50.850Z,21.10
2023-02-08T07:16:22.221Z,20.73
2023-02-08T07:18:50.109Z,21.50
2023-02-08T07:21:17.999Z,23.17
2023-02-08T07:23:45.938Z,21.73
2023-02-08T07:26:15.059Z,23.93
2023-02-08T07:28:43.379Z,22.73
2023-02-08T07:31:13.554Z,23.77
2023-02-08T07:33:42.972Z,22.70
2023-02-08T07:36:12.085Z,23.87
2023-02-08T07:38:40.546Z,21.97
2023-02-08T07:41:10.199Z,21.33
2023-02-08T07:43:39.535Z,22.37
2023-02-08T07:46:08.993Z,22.27
2023-02-08T07:48:40.053Z,22.47
2023-02-08T07:51:10.420Z,23.57
2023-02-08T07:53:38.736Z,24.60
2023-02-08T07:56:07.123Z,22.90
2023-02-08T07:58:35.108Z,25.13
2023-02-08T08:01:15.853Z,22.67
2023-02-08T08:03:49.896Z,22.80
2023-02-08T08:06:19.217Z,24.50
2023-02-08T08:08:47.638Z,24.00
2023-02-08T08:11:15.784Z,22.90
2023-02-08T08:13:44.200Z,24.07
2023-02-08T08:16:12.418Z,24.07
2023-02-08T08:18:40.503Z,23.10
2023-02-08T08:21:08.851Z,23.43
2023-02-08T08:23:38.447Z,24.70
2023-02-08T08:26:10.884Z,23.73
2023-02-08T08:28:38.904Z,24.43
2023-02-08T08:31:11.224Z,22.90
2023-02-08T08:33:39.351Z,22.97
2023-02-08T08:36:08.011Z,23.40
2023-02-08T08:38:36.993Z,24.53
2023-02-08T08:41:09.977Z,23.13
2023-02-08T08:43:38.097Z,22.73
2023-02-08T08:46:07.083Z,21.83
2023-02-08T08:48:35.495Z,21.33
2023-02-08T08:51:03.849Z,22.67
2023-02-08T08:53:32.012Z,20.83
2023-02-08T08:55:59.866Z,20.53
2023-02-08T08:58:29.114Z,19.07
2023-02-08T09:01:00.078Z,19.87
2023-02-08T09:03:28.346Z,18.93
2023-02-08T09:05:56.252Z,19.37
2023-02-08T09:08:24.123Z,19.73
2023-02-08T09:10:51.923Z,18.60
2023-02-08T09:13:21.196Z,19.60
2023-02-08T09:15:50.791Z,18.30
2023-02-08T09:18:18.801Z,18.37
2023-02-08T09:20:46.783Z,17.67
2023-02-08T09:23:15.896Z,16.83
2023-02-08T09:25:43.710Z,17.17
2023-02-08T09:28:11.668Z,16.97
2023-02-08T09:30:39.546Z,16.90
2023-02-08T09:33:08.801Z,16.70
2023-02-08T09:35:36.578Z,16.73
2023-02-08T09:38:05.372Z,16.47
2023-02-08T09:40:43.021Z,15.57
2023-02-08T09:43:17.084Z,15.80
2023-02-08T09:45:59.819Z,15.80
2023-02-08T09:48:33.981Z,16.90
2023-02-08T09:51:09.819Z,16.73
2023-02-08T09:53:41.073Z,15.20
2023-02-08T09:56:16.530Z,16.30
2023-02-08T09:58:46.451Z,16.27
2023-02-08T10:01:21.020Z,15.90
2023-02-08T10:03:52.855Z,16.27
2023-02-08T10:06:21.894Z,16.40
2023-02-08T10:08:52.858Z,16.23
2023-02-08T10:11:40.298Z,16.30
2023-02-08T10:14:38.939Z,15.03
2023-02-08T10:17:41.071Z,15.43
2023-02-08T10:20:24.434Z,14.93
2023-02-08T10:23:04.844Z,15.43
2023-02-08T10:25:47.277Z,14.77
2023-02-08T10:28:35.552Z,14.97
2023-02-08T10:31:09.977Z,15.07
2023-02-08T10:33:48.208Z,14.60
2023-02-08T10:36:21.482Z,14.10
2023-02-08T10:38:53.200Z,14.40
2023-02-08T10:41:24.192Z,14.73
2023-02-08T10:44:01.483Z,14.47
2023-02-08T10:46:36.437Z,14.27
2023-02-08T10:49:10.676Z,13.30
2023-02-08T10:51:40.372Z,14.27
2023-02-08T10:54:12.504Z,13.83
2023-02-08T10:56:47.387Z,14.50
2023-02-08T10:59:20.171Z,14.60
2023-02-08T11:01:50.314Z,14.13
2023-02-08T11:04:19.199Z,14.00
2023-02-08T11:06:50.437Z,13.63
2023-02-08T11:09:28.872Z,13.87
2023-02-08T11:11:59.609Z,12.87
2023-02-08T11:14:45.370Z,13.33
2023-02-08T11:17:27.194Z,12.90
2023-02-08T11:19:55.518Z,12.13
2023-02-08T11:22:27.492Z,13.47
2023-02-08T11:24:58.695Z,12.00
2023-02-08T11:27:35.000Z,11.80
2023-02-08T11:30:20.916Z,11.97
2023-02-08T11:32:50.525Z,12.30
2023-02-08T11:35:22.931Z,12.00
2023-02-08T11:37:54.002Z,12.00
2023-02-08T11:40:25.107Z,11.40
2023-02-08T11:42:53.668Z,11.10
2023-02-08T11:45:24.400Z,11.20
2023-02-08T11:47:54.660Z,11.30
2023-02-08T11:50:27.564Z,10.87
2023-02-08T11:52:59.857Z,10.67
2023-02-08T11:55:30.129Z,10.27
2023-02-08T11:58:01.590Z,10.30
2023-02-08T12:00:31.877Z,10.67
2023-02-08T12:03:01.766Z,10.80
2023-02-08T12:05:41.448Z,10.87
2023-02-08T12:08:18.624Z,11.03
2023-02-08T12:11:16.212Z,10.43
2023-02-08T12:14:05.552Z,10.70
2023-02-08T12:16:50.574Z,11.20
2023-02-08T12:19:53.679Z,11.70
2023-02-08T12:22:26.317Z,11.57
2023-02-08T12:25:11.304Z,11.47
2023-02-08T12:27:46.946Z,11.93
2023-02-08T12:30:25.146Z,12.07
2023-02-08T12:33:21.401Z,11.67
2023-02-08T12:36:04.572Z,12.43
2023-02-08T12:39:18.870Z,11.97
2023-02-08T12:41:59.148Z,11.93
2023-02-08T12:44:38.683Z,11.23
2023-02-08T12:47:20.208Z,10.73
2023-02-08T12:50:01.778Z,11.07
2023-02-08T12:52:37.121Z,11.67
2023-02-08T12:55:15.622Z,11.80
2023-02-08T12:57:48.987Z,11.50
2023-02-08T13:00:20.840Z,15.00
2023-02-08T13:02:58.151Z,11.33
2023-02-08T13:05:31.718Z,11.30
2023-02-08T13:08:04.814Z,11.77
2023-02-08T13:10:37.339Z,11.13
2023-02-08T13:13:15.649Z,11.70
2023-02-08T13:15:47.348Z,10.57
2023-02-08T13:18:21.317Z,10.43
2023-02-08T13:20:52.944Z,11.80
2023-02-08T13:23:27.251Z,12.20
2023-02-08T13:25:59.003Z,10.87
2023-02-08T13:28:29.171Z,10.87
2023-02-08T13:31:02.111Z,10.70
2023-02-08T13:33:36.483Z,10.87
2023-02-08T13:36:05.056Z,9.90
2023-02-08T13:38:35.724Z,10.27
2023-02-08T13:41:07.934Z,10.33
2023-02-08T13:43:42.592Z,10.47
2023-02-08T13:46:12.870Z,10.57
2023-02-08T13:48:49.070Z,10.20
2023-02-08T13:52:02.245Z,10.83
2023-02-08T13:54:30.420Z,11.03
2023-02-08T13:56:58.899Z,11.70
2023-02-08T13:59:41.229Z,10.87
2023-02-08T14:02:31.044Z,12.10
2023-02-08T14:05:32.481Z,14.00
2023-02-08T14:08:02.168Z,11.63
2023-02-08T14:10:37.464Z,12.73
2023-02-08T14:13:17.055Z,13.73
2023-02-08T14:15:47.730Z,12.77
2023-02-08T14:18:28.303Z,12.40
2023-02-08T14:21:03.212Z,12.83
2023-02-08T14:23:33.332Z,12.77
2023-02-08T14:26:08.351Z,11.77
2023-02-08T14:28:40.201Z,12.67
2023-02-08T14:31:11.885Z,12.00
2023-02-08T14:33:42.264Z,12.13
2023-02-08T14:36:30.225Z,12.27
2023-02-08T14:39:09.668Z,11.60
2023-02-08T14:41:54.270Z,11.80
2023-02-08T14:44:59.347Z,11.60
2023-02-08T14:47:55.019Z,12.07
2023-02-08T14:50:26.301Z,11.57
2023-02-08T14:53:00.956Z,11.70
2023-02-08T14:55:33.224Z,13.37
2023-02-08T14:58:02.701Z,13.57
2023-02-08T15:00:35.161Z,14.37
2023-02-08T15:03:06.450Z,15.10
2023-02-08T15:05:41.472Z,13.83
2023-02-08T15:08:09.766Z,14.20
2023-02-08T15:10:44.825Z,14.80
2023-02-08T15:13:20.326Z,14.83
2023-02-08T15:15:53.670Z,15.13
2023-02-08T15:18:26.360Z,14.40
2023-02-08T15:21:03.713Z,14.13
2023-02-08T15:23:32.284Z,14.60
2023-02-08T15:26:01.843Z,14.33
2023-02-08T15:28:31.615Z,14.67
2023-02-08T15:31:02.585Z,15.40
2023-02-08T15:33:32.860Z,14.83
2023-02-08T15:36:06.131Z,14.97
2023-02-08T15:38:38.363Z,15.07
2023-02-08T15:41:09.747Z,15.07
2023-02-08T15:43:39.708Z,15.07
2023-02-08T15:46:17.716Z,15.83
2023-02-08T15:48:48.588Z,14.80
2023-02-08T15:51:17.113Z,14.67
2023-02-08T15:53:47.196Z,16.00
2023-02-08T15:56:27.032Z,15.30
2023-02-08T15:59:05.380Z,15.97
2023-02-08T16:01:34.350Z,16.10
2023-02-08T16:04:08.166Z,15.53
2023-02-08T16:06:39.886Z,15.03
2023-02-08T16:09:07.990Z,16.30
2023-02-08T16:11:37.649Z,15.17
2023-02-08T16:14:07.706Z,15.40
2023-02-08T16:16:41.108Z,15.67
2023-02-08T16:19:22.765Z,15.30
2023-02-08T16:21:51.294Z,15.33
2023-02-08T16:24:24.899Z,15.27
2023-02-08T16:27:05.578Z,15.00
2023-02-08T16:29:35.715Z,15.90
2023-02-08T16:32:12.619Z,16.63
2023-02-08T16:34:42.735Z,15.50
2023-02-08T16:37:24.542Z,15.90
2023-02-08T16:39:54.289Z,16.60
2023-02-08T16:42:27.633Z,15.83
2023-02-08T16:45:15.169Z,16.33
2023-02-08T16:47:45.113Z,15.30
2023-02-08T16:50:17.460Z,15.77
2023-02-08T16:52:45.809Z,16.37
2023-02-08T16:55:19.599Z,15.63
2023-02-08T16:57:49.656Z,16.50
2023-02-08T17:00:23.295Z,15.83
2023-02-08T17:02:51.371Z,16.60
2023-02-08T17:05:22.391Z,16.43
2023-02-08T17:07:50.395Z,16.65
2023-02-08T17:10:22.601Z,17.37
2023-02-08T17:12:50.456Z,16.13
2023-02-08T17:15:19.372Z,16.67
2023-02-08T17:17:47.323Z,16.80
2023-02-08T17:20:22.895Z,16.90
2023-02-08T17:22:51.688Z,17.17
2023-02-08T17:25:20.340Z,17.40
2023-02-08T17:27:53.059Z,17.07
2023-02-08T17:30:23.951Z,17.27
2023-02-08T17:32:53.413Z,17.73
2023-02-08T17:35:23.397Z,17.87
2023-02-08T17:37:53.437Z,18.03
2023-02-08T17:40:22.985Z,18.33
2023-02-08T17:42:53.160Z,18.43
2023-02-08T17:45:21.687Z,18.83
2023-02-08T17:47:49.862Z,19.83
2023-02-08T17:50:19.383Z,19.63
2023-02-08T17:52:49.135Z,19.80
2023-02-08T17:55:18.992Z,20.67
2023-02-08T17:57:47.682Z,21.37
2023-02-08T18:00:17.751Z,20.63
2023-02-08T18:02:46.887Z,20.70
2023-02-08T18:05:15.626Z,20.87
2023-02-08T18:07:43.714Z,22.60
2023-02-08T18:10:14.192Z,21.67
2023-02-08T18:12:42.775Z,21.83
2023-02-08T18:15:12.950Z,22.13
2023-02-08T18:17:41.311Z,21.73
2023-02-08T18:20:11.719Z,22.03
2023-02-08T18:22:40.038Z,21.90
2023-02-08T18:25:08.864Z,22.07
2023-02-08T18:27:38.121Z,22.73
2023-02-08T18:30:06.554Z,22.97
2023-02-08T18:32:34.634Z,22.27
2023-02-08T18:35:04.203Z,22.27
2023-02-08T18:37:33.068Z,22.83
2023-02-08T18:40:01.238Z,21.83
2023-02-08T18:42:29.344Z,22.30
2023-02-08T18:44:58.497Z,23.53
2023-02-08T18:47:26.488Z,23.70
2023-02-08T18:49:55.145Z,23.90
2023-02-08T18:52:24.559Z,22.00
2023-02-08T18:54:52.662Z,22.83
2023-02-08T18:57:20.679Z,23.23
2023-02-08T18:59:48.775Z,23.93
2023-02-08T19:02:20.844Z,21.47
2023-02-08T19:04:49.384Z,23.20
2023-02-08T19:07:17.341Z,22.60
2023-02-08T19:09:45.300Z,23.13
2023-02-08T19:12:15.290Z,23.23
2023-02-08T19:14:44.187Z,23.37
2023-02-08T19:17:14.776Z,22.27
2023-02-08T19:19:44.248Z,21.93
2023-02-08T19:22:12.638Z,23.20
2023-02-08T19:24:40.485Z,23.87
2023-02-08T19:27:08.373Z,22.23
2023-02-08T19:29:36.597Z,23.03
2023-02-08T19:32:04.799Z,21.83
2023-02-08T19:34:32.692Z,22.90
2023-02-08T19:37:02.291Z,22.23
2023-02-08T19:39:30.461Z,21.27
2023-02-08T19:41:59.092Z,22.90
2023-02-08T19:44:30.109Z,22.23
2023-02-08T19:46:58.865Z,22.13
2023-02-08T19:49:28.211Z,22.90
2023-02-08T19:51:56.624Z,23.03
2023-02-08T19:54:25.812Z,22.77
2023-02-08T19:56:54.855Z,22.30
2023-02-08T19:59:25.042Z,21.07
2023-02-08T20:01:53.629Z,22.13
2023-02-08T20:04:21.658Z,22.53
2023-02-08T20:06:52.514Z,21.97
2023-02-08T20:09:20.456Z,22.40
2023-02-08T20:11:57.352Z,21.10
2023-02-08T20:14:26.304Z,21.40
2023-02-08T20:16:54.305Z,20.97
2023-02-08T20:19:22.233Z,27.47
2023-02-08T20:21:50.104Z,21.13
2023-02-08T20:24:18.565Z,20.90
2023-02-08T20:26:48.823Z,20.60
2023-02-08T20:29:17.836Z,21.33
2023-02-08T20:31:47.809Z,22.67
2023-02-08T20:34:18.562Z,21.17
2023-02-08T20:37:05.232Z,20.80
2023-02-08T20:39:35.256Z,21.80
2023-02-08T20:42:04.818Z,21.50
2023-02-08T20:44:32.722Z,20.97
2023-02-08T20:47:00.895Z,21.73
2023-02-08T20:49:30.672Z,22.03
2023-02-08T20:51:58.696Z,20.43
2023-02-08T20:54:26.591Z,21.13
2023-02-08T20:56:55.042Z,20.90
2023-02-08T20:59:24.284Z,22.83
2023-02-08T21:01:52.588Z,30.03
2023-02-08T21:04:23.210Z,20.53
2023-02-08T21:06:52.058Z,21.33
2023-02-08T21:09:21.014Z,22.90
2023-02-08T21:11:48.950Z,21.57
2023-02-08T21:14:20.521Z,21.83
2023-02-08T21:16:51.937Z,22.57
2023-02-08T21:19:21.063Z,23.17
2023-02-08T21:21:52.218Z,22.90
2023-02-08T21:24:20.637Z,22.30
2023-02-08T21:26:48.491Z,22.27
2023-02-08T21:29:16.898Z,22.50
2023-02-08T21:31:45.150Z,24.17
2023-02-08T21:34:14.597Z,22.50
2023-02-08T21:36:42.448Z,22.17
2023-02-08T21:39:10.408Z,23.17
2023-02-08T21:41:38.263Z,23.07
2023-02-08T21:44:08.042Z,23.23
2023-02-08T21:46:36.110Z,22.30
2023-02-08T21:49:23.117Z,21.90
2023-02-08T21:52:10.313Z,23.03
2023-02-08T21:54:52.128Z,24.17
2023-02-08T21:57:21.833Z,25.93
2023-02-08T21:59:51.624Z,22.87
2023-02-08T22:02:25.338Z,23.97
2023-02-08T22:04:54.580Z,25.07
2023-02-08T22:07:24.042Z,23.53
2023-02-08T22:09:52.484Z,25.17
2023-02-08T22:12:22.887Z,26.87
2023-02-08T22:14:51.403Z,25.53
2023-02-08T22:17:19.432Z,25.03
2023-02-08T22:19:47.624Z,24.97
2023-02-08T22:22:15.497Z,25.67
2023-02-08T22:24:44.791Z,23.87
2023-02-08T22:27:13.285Z,25.60
2023-02-08T22:29:41.159Z,26.37
2023-02-08T22:32:09.909Z,25.37
2023-02-08T22:34:38.659Z,25.37
2023-02-08T22:37:07.563Z,25.53
2023-02-08T22:39:35.749Z,25.70
2023-02-08T22:42:08.618Z,25.90
2023-02-08T22:44:37.404Z,25.63
2023-02-08T22:47:06.491Z,26.20
2023-02-08T22:49:34.412Z,26.53
2023-02-08T22:52:02.993Z,26.60
2023-02-08T22:54:30.958Z,26.83
2023-02-08T22:56:58.945Z,26.57
2023-02-08T22:59:28.349Z,27.67
2023-02-08T23:01:56.416Z,26.90
2023-02-08T23:04:24.302Z,26.67
2023-02-08T23:06:52.470Z,26.80
2023-02-08T23:09:20.979Z,26.33
2023-02-08T23:11:49.020Z,27.03
2023-02-08T23:14:17.505Z,26.60
2023-02-08T23:16:46.851Z,27.17
2023-02-08T23:19:15.710Z,27.43
2023-02-08T23:21:44.018Z,28.13
2023-02-08T23:24:12.392Z,26.43
2023-02-08T23:26:40.348Z,27.67
2023-02-08T23:29:08.307Z,28.07
2023-02-08T23:31:36.282Z,29.47
2023-02-08T23:34:05.601Z,26.93
2023-02-08T23:36:33.435Z,28.63
2023-02-08T23:39:03.266Z,29.90
2023-02-08T23:41:31.161Z,29.30
2023-02-08T23:43:59.161Z,29.63
2023-02-08T23:46:28.752Z,28.77
2023-02-08T23:48:56.840Z,29.27
2023-02-08T23:51:27.038Z,28.97
2023-02-08T23:53:55.722Z,29.67
2023-02-08T23:56:25.942Z,30.10
2023-02-08T23:58:56.628Z,29.50
